Terminal Aerodrome Forecast
Issued by NWS

Home | Current Version | Previous Version | Text Only | Print | Product List | Glossary On
Versions: 1 2 3 4 5 6 7 8 9 10 11 12 13
000
FTUS46 KSEW 272320
TAFCLM
TAF
KCLM 272320Z 2800/2824 30007KT P6SM BKN250
     FM280400 28005KT P6SM BKN080 OVC150
     FM280900 28003KT P6SM -RA BKN050 OVC080
     FM281800 32004KT P6SM BKN030 OVC050 PROB30 2818/2824 -RA=

USA.gov is the U.S. government's official web portal to all federal, state and local government web resources and services.